sensor_id;sensor_type;location;lat;lon;timestamp;pressure;altitude;pressure_sealevel;temperature;humidity
11077;BME280;5591;42.626;23.380;2024-02-26T00:01:45;93728.88;;;10.57;100.00
11077;BME280;5591;42.626;23.380;2024-02-26T00:04:12;93732.56;;;10.76;100.00
11077;BME280;5591;42.626;23.380;2024-02-26T00:06:39;93722.84;;;10.96;100.00
11077;BME280;5591;42.626;23.380;2024-02-26T00:09:06;93718.81;;;11.00;100.00
11077;BME280;5591;42.626;23.380;2024-02-26T00:11:33;93715.78;;;10.90;100.00
11077;BME280;5591;42.626;23.380;2024-02-26T00:14:00;93721.44;;;10.93;100.00
11077;BME280;5591;42.626;23.380;2024-02-26T00:16:28;93712.97;;;11.04;100.00
11077;BME280;5591;42.626;23.380;2024-02-26T00:18:55;93721.38;;;11.39;100.00
11077;BME280;5591;42.626;23.380;2024-02-26T00:21:21;93716.13;;;11.32;100.00
11077;BME280;5591;42.626;23.380;2024-02-26T00:23:49;93706.41;;;11.46;100.00
11077;BME280;5591;42.626;23.380;2024-02-26T00:26:16;93712.69;;;11.38;100.00
11077;BME280;5591;42.626;23.380;2024-02-26T00:28:43;93714.94;;;11.35;100.00
11077;BME280;5591;42.626;23.380;2024-02-26T00:31:09;93704.78;;;11.51;100.00
11077;BME280;5591;42.626;23.380;2024-02-26T00:33:38;93705.78;;;11.63;100.00
11077;BME280;5591;42.626;23.380;2024-02-26T00:36:05;93699.50;;;11.77;100.00
11077;BME280;5591;42.626;23.380;2024-02-26T00:38:32;93695.94;;;11.96;100.00
11077;BME280;5591;42.626;23.380;2024-02-26T00:40:59;93705.13;;;12.18;100.00
11077;BME280;5591;42.626;23.380;2024-02-26T00:43:25;93704.31;;;12.24;100.00
11077;BME280;5591;42.626;23.380;2024-02-26T00:45:52;93697.81;;;12.27;100.00
11077;BME280;5591;42.626;23.380;2024-02-26T00:48:19;93698.66;;;12.21;100.00
11077;BME280;5591;42.626;23.380;2024-02-26T00:50:47;93703.09;;;12.27;100.00
11077;BME280;5591;42.626;23.380;2024-02-26T00:53:14;93701.03;;;12.29;100.00
11077;BME280;5591;42.626;23.380;2024-02-26T00:55:41;93702.00;;;12.03;100.00
11077;BME280;5591;42.626;23.380;2024-02-26T00:58:07;93697.69;;;12.15;100.00
11077;BME280;5591;42.626;23.380;2024-02-26T01:00:34;93695.16;;;11.96;100.00
11077;BME280;5591;42.626;23.380;2024-02-26T01:03:01;93694.22;;;12.21;100.00
11077;BME280;5591;42.626;23.380;2024-02-26T01:05:28;93686.78;;;12.42;100.00
11077;BME280;5591;42.626;23.380;2024-02-26T01:07:56;93687.13;;;12.52;100.00
11077;BME280;5591;42.626;23.380;2024-02-26T01:10:23;93698.13;;;12.43;100.00
11077;BME280;5591;42.626;23.380;2024-02-26T01:12:50;93591.88;;;11.82;100.00
11077;BME280;5591;42.626;23.380;2024-02-26T01:15:16;93689.69;;;12.28;100.00
11077;BME280;5591;42.626;23.380;2024-02-26T01:17:44;93690.47;;;11.98;100.00
11077;BME280;5591;42.626;23.380;2024-02-26T01:20:11;93680.25;;;12.21;100.00
11077;BME280;5591;42.626;23.380;2024-02-26T01:22:37;93680.56;;;12.00;100.00
11077;BME280;5591;42.626;23.380;2024-02-26T01:25:08;93678.25;;;12.16;100.00
11077;BME280;5591;42.626;23.380;2024-02-26T01:27:35;93673.34;;;11.89;100.00
11077;BME280;5591;42.626;23.380;2024-02-26T01:30:01;93676.78;;;11.89;100.00
11077;BME280;5591;42.626;23.380;2024-02-26T01:32:29;93680.16;;;11.96;100.00
11077;BME280;5591;42.626;23.380;2024-02-26T01:34:56;93673.28;;;11.95;100.00
11077;BME280;5591;42.626;23.380;2024-02-26T01:37:22;93675.06;;;11.64;100.00
11077;BME280;5591;42.626;23.380;2024-02-26T01:39:49;93621.91;;;11.55;100.00
11077;BME280;5591;42.626;23.380;2024-02-26T01:42:17;93665.06;;;11.85;100.00
11077;BME280;5591;42.626;23.380;2024-02-26T01:44:44;93665.28;;;11.84;100.00
11077;BME280;5591;42.626;23.380;2024-02-26T01:47:12;93668.69;;;11.84;100.00
11077;BME280;5591;42.626;23.380;2024-02-26T01:49:40;93662.31;;;11.67;100.00
11077;BME280;5591;42.626;23.380;2024-02-26T01:52:08;93659.31;;;11.57;100.00
11077;BME280;5591;42.626;23.380;2024-02-26T01:54:37;93657.47;;;11.64;100.00
11077;BME280;5591;42.626;23.380;2024-02-26T01:57:05;93661.59;;;11.91;100.00
11077;BME280;5591;42.626;23.380;2024-02-26T01:59:34;93616.59;;;11.75;100.00
11077;BME280;5591;42.626;23.380;2024-02-26T02:02:03;93659.03;;;11.78;100.00
11077;BME280;5591;42.626;23.380;2024-02-26T02:04:32;93648.50;;;11.85;100.00
11077;BME280;5591;42.626;23.380;2024-02-26T02:07:00;93648.03;;;11.94;100.00
11077;BME280;5591;42.626;23.380;2024-02-26T02:09:27;93657.66;;;12.07;100.00
11077;BME280;5591;42.626;23.380;2024-02-26T02:11:54;93655.19;;;12.12;100.00
11077;BME280;5591;42.626;23.380;2024-02-26T02:14:21;93671.56;;;12.20;100.00
11077;BME280;5591;42.626;23.380;2024-02-26T02:16:49;93655.34;;;11.86;100.00
11077;BME280;5591;42.626;23.380;2024-02-26T02:19:16;93654.94;;;11.89;100.00
11077;BME280;5591;42.626;23.380;2024-02-26T02:21:44;93656.97;;;11.87;100.00
11077;BME280;5591;42.626;23.380;2024-02-26T02:24:10;93655.41;;;11.73;100.00
11077;BME280;5591;42.626;23.380;2024-02-26T02:26:37;93655.53;;;11.91;100.00
11077;BME280;5591;42.626;23.380;2024-02-26T02:29:05;93649.53;;;12.15;100.00
11077;BME280;5591;42.626;23.380;2024-02-26T02:31:33;93650.88;;;11.93;100.00
11077;BME280;5591;42.626;23.380;2024-02-26T02:34:00;93652.44;;;12.00;100.00
11077;BME280;5591;42.626;23.380;2024-02-26T02:36:27;93665.69;;;12.18;100.00
11077;BME280;5591;42.626;23.380;2024-02-26T02:38:55;93666.66;;;12.24;100.00
11077;BME280;5591;42.626;23.380;2024-02-26T02:41:22;93657.97;;;12.23;100.00
11077;BME280;5591;42.626;23.380;2024-02-26T02:43:48;93664.22;;;12.29;100.00
11077;BME280;5591;42.626;23.380;2024-02-26T02:46:15;93660.66;;;12.17;100.00
11077;BME280;5591;42.626;23.380;2024-02-26T02:48:42;93667.44;;;11.93;100.00
11077;BME280;5591;42.626;23.380;2024-02-26T02:51:09;93660.94;;;11.52;100.00
11077;BME280;5591;42.626;23.380;2024-02-26T02:53:35;93666.81;;;11.47;100.00
11077;BME280;5591;42.626;23.380;2024-02-26T02:56:04;93654.56;;;11.15;100.00
11077;BME280;5591;42.626;23.380;2024-02-26T02:58:31;93655.38;;;11.79;100.00
11077;BME280;5591;42.626;23.380;2024-02-26T03:00:58;93659.13;;;11.96;100.00
11077;BME280;5591;42.626;23.380;2024-02-26T03:03:26;93658.59;;;12.19;100.00
11077;BME280;5591;42.626;23.380;2024-02-26T03:05:54;93672.44;;;12.08;100.00
11077;BME280;5591;42.626;23.380;2024-02-26T03:08:20;93668.84;;;11.96;100.00
11077;BME280;5591;42.626;23.380;2024-02-26T03:10:47;93665.84;;;11.92;100.00
11077;BME280;5591;42.626;23.380;2024-02-26T03:13:15;93670.63;;;12.02;100.00
11077;BME280;5591;42.626;23.380;2024-02-26T03:15:42;93672.25;;;12.33;100.00
11077;BME280;5591;42.626;23.380;2024-02-26T03:18:09;93669.88;;;11.95;100.00
11077;BME280;5591;42.626;23.380;2024-02-26T03:20:35;93666.69;;;11.80;100.00
11077;BME280;5591;42.626;23.380;2024-02-26T03:23:03;93660.69;;;11.73;100.00
11077;BME280;5591;42.626;23.380;2024-02-26T03:25:29;93658.56;;;11.88;100.00
11077;BME280;5591;42.626;23.380;2024-02-26T03:27:56;93658.56;;;11.88;100.00
11077;BME280;5591;42.626;23.380;2024-02-26T03:30:23;93641.66;;;11.71;100.00
11077;BME280;5591;42.626;23.380;2024-02-26T03:32:50;93655.81;;;11.70;100.00
11077;BME280;5591;42.626;23.380;2024-02-26T03:35:16;93651.84;;;11.61;100.00
11077;BME280;5591;42.626;23.380;2024-02-26T03:37:43;93639.94;;;11.39;100.00
11077;BME280;5591;42.626;23.380;2024-02-26T03:40:11;93642.97;;;11.42;100.00
11077;BME280;5591;42.626;23.380;2024-02-26T03:42:39;93643.59;;;11.31;100.00
11077;BME280;5591;42.626;23.380;2024-02-26T03:45:07;93638.94;;;11.33;100.00
11077;BME280;5591;42.626;23.380;2024-02-26T03:47:37;93631.63;;;11.48;100.00
11077;BME280;5591;42.626;23.380;2024-02-26T03:50:05;93639.28;;;11.63;100.00
11077;BME280;5591;42.626;23.380;2024-02-26T03:52:33;93634.47;;;11.47;100.00
11077;BME280;5591;42.626;23.380;2024-02-26T03:55:00;93636.88;;;11.48;100.00
11077;BME280;5591;42.626;23.380;2024-02-26T03:57:26;93639.94;;;11.39;100.00
11077;BME280;5591;42.626;23.380;2024-02-26T03:59:53;93641.53;;;11.53;100.00
11077;BME280;5591;42.626;23.380;2024-02-26T04:02:20;93641.75;;;11.45;100.00
11077;BME280;5591;42.626;23.380;2024-02-26T04:04:49;93631.56;;;11.11;100.00
11077;BME280;5591;42.626;23.380;2024-02-26T04:07:16;93644.19;;;11.40;100.00
11077;BME280;5591;42.626;23.380;2024-02-26T04:09:42;93637.47;;;11.50;100.00
11077;BME280;5591;42.626;23.380;2024-02-26T04:12:09;93639.72;;;11.47;100.00
11077;BME280;5591;42.626;23.380;2024-02-26T04:14:36;93632.31;;;11.31;100.00
11077;BME280;5591;42.626;23.380;2024-02-26T04:17:03;93628.16;;;11.54;100.00
11077;BME280;5591;42.626;23.380;2024-02-26T04:19:30;93625.47;;;11.10;100.00
11077;BME280;5591;42.626;23.380;2024-02-26T04:21:58;93630.50;;;11.18;100.00
11077;BME280;5591;42.626;23.380;2024-02-26T04:24:25;93620.81;;;11.19;100.00
11077;BME280;5591;42.626;23.380;2024-02-26T04:26:52;93612.56;;;11.09;100.00
11077;BME280;5591;42.626;23.380;2024-02-26T04:29:19;93613.09;;;11.30;100.00
11077;BME280;5591;42.626;23.380;2024-02-26T04:31:45;93589.94;;;11.14;100.00
11077;BME280;5591;42.626;23.380;2024-02-26T04:34:13;93619.16;;;11.31;100.00
11077;BME280;5591;42.626;23.380;2024-02-26T04:36:40;93618.94;;;11.32;100.00
11077;BME280;5591;42.626;23.380;2024-02-26T04:39:09;93622.53;;;11.51;100.00
11077;BME280;5591;42.626;23.380;2024-02-26T04:41:36;93622.94;;;11.61;100.00
11077;BME280;5591;42.626;23.380;2024-02-26T04:44:03;93622.06;;;11.67;100.00
11077;BME280;5591;42.626;23.380;2024-02-26T04:46:30;93618.09;;;11.45;100.00
11077;BME280;5591;42.626;23.380;2024-02-26T04:48:56;93630.44;;;11.38;100.00
11077;BME280;5591;42.626;23.380;2024-02-26T04:51:23;93624.31;;;11.63;100.00
11077;BME280;5591;42.626;23.380;2024-02-26T04:53:50;93625.88;;;11.77;100.00
11077;BME280;5591;42.626;23.380;2024-02-26T04:56:20;93627.03;;;11.88;100.00
11077;BME280;5591;42.626;23.380;2024-02-26T04:58:47;93626.06;;;11.76;100.00
11077;BME280;5591;42.626;23.380;2024-02-26T05:01:13;93647.56;;;11.60;100.00
11077;BME280;5591;42.626;23.380;2024-02-26T05:03:41;93646.13;;;11.70;100.00
11077;BME280;5591;42.626;23.380;2024-02-26T05:06:08;93649.44;;;11.40;100.00
11077;BME280;5591;42.626;23.380;2024-02-26T05:08:35;93641.50;;;11.66;100.00
11077;BME280;5591;42.626;23.380;2024-02-26T05:11:03;93628.38;;;11.53;100.00
11077;BME280;5591;42.626;23.380;2024-02-26T05:13:32;93651.59;;;11.62;100.00
11077;BME280;5591;42.626;23.380;2024-02-26T05:15:58;93654.66;;;11.53;100.00
11077;BME280;5591;42.626;23.380;2024-02-26T05:18:25;93653.31;;;11.31;100.00
11077;BME280;5591;42.626;23.380;2024-02-26T05:20:52;93664.25;;;11.08;100.00
11077;BME280;5591;42.626;23.380;2024-02-26T05:23:18;93658.97;;;11.28;100.00
11077;BME280;5591;42.626;23.380;2024-02-26T05:25:45;93664.03;;;11.29;100.00
11077;BME280;5591;42.626;23.380;2024-02-26T05:28:13;93651.81;;;11.67;100.00
11077;BME280;5591;42.626;23.380;2024-02-26T05:30:42;93660.91;;;11.65;100.00
11077;BME280;5591;42.626;23.380;2024-02-26T05:33:09;93667.91;;;11.84;100.00
11077;BME280;5591;42.626;23.380;2024-02-26T05:35:36;93674.44;;;11.68;100.00
11077;BME280;5591;42.626;23.380;2024-02-26T05:38:03;93675.56;;;11.85;100.00
11077;BME280;5591;42.626;23.380;2024-02-26T05:40:30;93681.69;;;11.79;100.00
11077;BME280;5591;42.626;23.380;2024-02-26T05:42:57;93689.75;;;11.78;100.00
11077;BME280;5591;42.626;23.380;2024-02-26T05:45:23;93688.91;;;11.90;100.00
11077;BME280;5591;42.626;23.380;2024-02-26T05:47:51;93689.84;;;12.02;100.00
11077;BME280;5591;42.626;23.380;2024-02-26T05:50:18;93683.69;;;11.84;100.00
11077;BME280;5591;42.626;23.380;2024-02-26T05:52:45;93683.75;;;11.64;100.00
11077;BME280;5591;42.626;23.380;2024-02-26T05:55:11;93689.41;;;12.12;100.00
11077;BME280;5591;42.626;23.380;2024-02-26T05:57:39;93686.16;;;12.10;100.00
11077;BME280;5591;42.626;23.380;2024-02-26T06:00:06;93696.31;;;12.06;100.00
11077;BME280;5591;42.626;23.380;2024-02-26T06:02:33;93703.03;;;11.96;100.00
11077;BME280;5591;42.626;23.380;2024-02-26T06:05:01;93704.50;;;11.85;100.00
11077;BME280;5591;42.626;23.380;2024-02-26T06:07:28;93734.75;;;12.01;100.00
11077;BME280;5591;42.626;23.380;2024-02-26T06:09:55;93708.06;;;12.04;100.00
11077;BME280;5591;42.626;23.380;2024-02-26T06:12:21;93696.28;;;11.62;100.00
11077;BME280;5591;42.626;23.380;2024-02-26T06:14:48;93673.97;;;11.84;100.00
11077;BME280;5591;42.626;23.380;2024-02-26T06:17:15;93702.34;;;12.13;100.00
11077;BME280;5591;42.626;23.380;2024-02-26T06:19:42;93706.38;;;12.16;100.00
11077;BME280;5591;42.626;23.380;2024-02-26T06:22:10;93711.44;;;12.11;100.00
11077;BME280;5591;42.626;23.380;2024-02-26T06:24:37;93714.28;;;12.16;100.00
11077;BME280;5591;42.626;23.380;2024-02-26T06:27:03;93703.56;;;12.11;100.00
11077;BME280;5591;42.626;23.380;2024-02-26T06:29:30;93705.56;;;12.15;100.00
11077;BME280;5591;42.626;23.380;2024-02-26T06:31:56;93696.16;;;11.95;100.00
11077;BME280;5591;42.626;23.380;2024-02-26T06:34:23;93706.13;;;12.24;100.00
11077;BME280;5591;42.626;23.380;2024-02-26T06:36:50;93715.25;;;12.58;100.00
11077;BME280;5591;42.626;23.380;2024-02-26T06:39:18;93708.22;;;12.77;100.00
11077;BME280;5591;42.626;23.380;2024-02-26T06:41:45;93628.94;;;12.36;100.00
11077;BME280;5591;42.626;23.380;2024-02-26T06:44:13;93717.97;;;13.01;100.00
11077;BME280;5591;42.626;23.380;2024-02-26T06:46:40;93719.28;;;12.85;100.00
11077;BME280;5591;42.626;23.380;2024-02-26T06:49:07;93719.72;;;13.13;100.00
11077;BME280;5591;42.626;23.380;2024-02-26T06:51:33;93623.75;;;12.54;100.00
11077;BME280;5591;42.626;23.380;2024-02-26T06:54:00;93712.94;;;12.99;100.00
11077;BME280;5591;42.626;23.380;2024-02-26T06:56:28;93711.69;;;13.26;100.00
11077;BME280;5591;42.626;23.380;2024-02-26T06:58:55;93708.66;;;13.23;100.00
11077;BME280;5591;42.626;23.380;2024-02-26T07:01:21;93723.50;;;13.42;100.00
11077;BME280;5591;42.626;23.380;2024-02-26T07:03:48;93708.31;;;13.37;100.00
11077;BME280;5591;42.626;23.380;2024-02-26T07:06:15;93726.13;;;13.42;100.00
11077;BME280;5591;42.626;23.380;2024-02-26T07:08:41;93730.25;;;13.56;100.00
11077;BME280;5591;42.626;23.380;2024-02-26T07:11:08;93727.06;;;13.29;100.00
11077;BME280;5591;42.626;23.380;2024-02-26T07:13:36;93735.59;;;13.25;100.00
11077;BME280;5591;42.626;23.380;2024-02-26T07:16:03;93737.31;;;13.37;100.00
11077;BME280;5591;42.626;23.380;2024-02-26T07:18:30;93737.91;;;13.82;100.00
11077;BME280;5591;42.626;23.380;2024-02-26T07:20:57;93736.22;;;13.87;100.00
11077;BME280;5591;42.626;23.380;2024-02-26T07:23:24;93734.16;;;14.07;100.00
11077;BME280;5591;42.626;23.380;2024-02-26T07:25:50;93732.19;;;14.03;100.00
11077;BME280;5591;42.626;23.380;2024-02-26T07:28:18;93736.09;;;14.18;100.00
11077;BME280;5591;42.626;23.380;2024-02-26T07:30:46;93734.94;;;14.08;100.00
11077;BME280;5591;42.626;23.380;2024-02-26T07:33:13;93739.78;;;14.29;100.00
11077;BME280;5591;42.626;23.380;2024-02-26T07:35:40;93734.34;;;14.42;100.00
11077;BME280;5591;42.626;23.380;2024-02-26T07:38:06;93734.66;;;14.63;100.00
11077;BME280;5591;42.626;23.380;2024-02-26T07:40:33;93736.84;;;14.37;100.00
11077;BME280;5591;42.626;23.380;2024-02-26T07:43:00;93734.03;;;14.50;100.00
11077;BME280;5591;42.626;23.380;2024-02-26T07:45:26;93740.78;;;14.75;99.63
11077;BME280;5591;42.626;23.380;2024-02-26T07:47:54;93747.38;;;14.84;97.99
11077;BME280;5591;42.626;23.380;2024-02-26T07:50:21;93745.47;;;15.02;97.33
11077;BME280;5591;42.626;23.380;2024-02-26T07:52:48;93718.03;;;15.26;94.98
11077;BME280;5591;42.626;23.380;2024-02-26T07:55:16;93743.16;;;15.81;91.13
11077;BME280;5591;42.626;23.380;2024-02-26T07:57:44;93732.31;;;15.48;93.29
11077;BME280;5591;42.626;23.380;2024-02-26T08:00:11;93733.25;;;15.42;91.85
11077;BME280;5591;42.626;23.380;2024-02-26T08:02:42;93721.63;;;15.78;90.79
11077;BME280;5591;42.626;23.380;2024-02-26T08:05:10;93727.03;;;15.83;90.73
11077;BME280;5591;42.626;23.380;2024-02-26T08:07:36;93726.47;;;15.46;90.23
11077;BME280;5591;42.626;23.380;2024-02-26T08:10:04;93729.69;;;15.60;90.69
11077;BME280;5591;42.626;23.380;2024-02-26T08:12:30;93726.22;;;15.82;89.95
11077;BME280;5591;42.626;23.380;2024-02-26T08:14:57;93719.34;;;15.81;89.32
11077;BME280;5591;42.626;23.380;2024-02-26T08:17:24;93727.03;;;16.34;86.14
11077;BME280;5591;42.626;23.380;2024-02-26T08:19:52;93721.25;;;16.48;84.12
11077;BME280;5591;42.626;23.380;2024-02-26T08:22:20;93727.09;;;17.06;81.76
11077;BME280;5591;42.626;23.380;2024-02-26T08:24:47;93732.16;;;17.08;79.39
11077;BME280;5591;42.626;23.380;2024-02-26T08:27:13;93685.78;;;16.77;79.06
11077;BME280;5591;42.626;23.380;2024-02-26T08:29:40;93731.31;;;17.52;77.12
11077;BME280;5591;42.626;23.380;2024-02-26T08:32:07;93728.16;;;17.71;75.14
11077;BME280;5591;42.626;23.380;2024-02-26T08:34:33;93728.00;;;17.61;73.61
11077;BME280;5591;42.626;23.380;2024-02-26T08:37:00;93724.78;;;17.59;74.54
11077;BME280;5591;42.626;23.380;2024-02-26T08:39:28;93728.50;;;17.42;74.54
11077;BME280;5591;42.626;23.380;2024-02-26T08:41:55;93730.22;;;17.48;74.55
11077;BME280;5591;42.626;23.380;2024-02-26T08:44:22;93723.69;;;17.55;73.58
11077;BME280;5591;42.626;23.380;2024-02-26T08:46:48;93720.19;;;17.22;74.91
11077;BME280;5591;42.626;23.380;2024-02-26T08:49:16;93725.59;;;17.60;73.91
11077;BME280;5591;42.626;23.380;2024-02-26T08:51:42;93727.50;;;17.80;72.62
11077;BME280;5591;42.626;23.380;2024-02-26T08:54:08;93723.09;;;18.07;70.67
11077;BME280;5591;42.626;23.380;2024-02-26T08:56:36;93736.81;;;17.83;71.11
11077;BME280;5591;42.626;23.380;2024-02-26T08:59:03;93722.22;;;17.64;71.79
11077;BME280;5591;42.626;23.380;2024-02-26T09:01:31;93689.28;;;17.81;69.67
11077;BME280;5591;42.626;23.380;2024-02-26T09:03:57;93705.13;;;17.76;71.41
11077;BME280;5591;42.626;23.380;2024-02-26T09:06:24;93716.94;;;18.23;69.54
11077;BME280;5591;42.626;23.380;2024-02-26T09:08:51;93724.00;;;18.56;67.95
11077;BME280;5591;42.626;23.380;2024-02-26T09:11:18;93723.44;;;18.54;67.55
11077;BME280;5591;42.626;23.380;2024-02-26T09:13:46;93713.59;;;18.76;65.83
11077;BME280;5591;42.626;23.380;2024-02-26T09:16:13;93715.94;;;18.72;65.62
11077;BME280;5591;42.626;23.380;2024-02-26T09:18:39;93709.31;;;19.01;64.57
11077;BME280;5591;42.626;23.380;2024-02-26T09:21:06;93709.53;;;19.21;63.60
11077;BME280;5591;42.626;23.380;2024-02-26T09:23:33;93712.06;;;19.06;63.51
11077;BME280;5591;42.626;23.380;2024-02-26T09:26:00;93714.94;;;19.05;64.08
11077;BME280;5591;42.626;23.380;2024-02-26T09:28:27;93716.69;;;18.68;64.34
11077;BME280;5591;42.626;23.380;2024-02-26T09:30:58;93715.94;;;18.99;63.00
11077;BME280;5591;42.626;23.380;2024-02-26T09:33:24;93714.88;;;19.21;62.52
11077;BME280;5591;42.626;23.380;2024-02-26T09:35:51;93729.00;;;19.27;61.25
11077;BME280;5591;42.626;23.380;2024-02-26T09:38:18;93712.28;;;19.31;61.46
11077;BME280;5591;42.626;23.380;2024-02-26T09:40:45;93715.16;;;18.72;62.91
11077;BME280;5591;42.626;23.380;2024-02-26T09:43:14;93710.59;;;18.94;62.54
11077;BME280;5591;42.626;23.380;2024-02-26T09:45:41;93711.47;;;19.62;61.18
11077;BME280;5591;42.626;23.380;2024-02-26T09:48:10;93713.91;;;18.79;63.10
11077;BME280;5591;42.626;23.380;2024-02-26T09:50:41;93711.47;;;19.31;61.91
11077;BME280;5591;42.626;23.380;2024-02-26T09:53:08;93708.97;;;19.51;60.15
11077;BME280;5591;42.626;23.380;2024-02-26T09:55:36;93711.88;;;19.44;60.14
11077;BME280;5591;42.626;23.380;2024-02-26T09:58:05;93697.78;;;19.17;59.46
11077;BME280;5591;42.626;23.380;2024-02-26T10:00:37;93714.19;;;19.09;59.96
11077;BME280;5591;42.626;23.380;2024-02-26T10:03:06;93710.38;;;18.74;59.65
11077;BME280;5591;42.626;23.380;2024-02-26T10:05:37;93715.28;;;19.13;60.25
11077;BME280;5591;42.626;23.380;2024-02-26T10:08:05;93705.78;;;19.49;59.23
11077;BME280;5591;42.626;23.380;2024-02-26T10:10:32;93709.28;;;19.54;59.06
11077;BME280;5591;42.626;23.380;2024-02-26T10:12:59;93695.56;;;19.36;58.72
11077;BME280;5591;42.626;23.380;2024-02-26T10:15:26;93706.84;;;19.84;58.43
11077;BME280;5591;42.626;23.380;2024-02-26T10:17:53;93699.72;;;20.00;57.16
11077;BME280;5591;42.626;23.380;2024-02-26T10:20:20;93699.53;;;20.11;57.13
11077;BME280;5591;42.626;23.380;2024-02-26T10:22:50;93694.84;;;20.23;56.41
11077;BME280;5591;42.626;23.380;2024-02-26T10:25:18;93690.63;;;19.91;57.17
11077;BME280;5591;42.626;23.380;2024-02-26T10:27:45;93677.19;;;20.17;56.87
11077;BME280;5591;42.626;23.380;2024-02-26T10:30:19;93687.38;;;20.25;55.79
11077;BME280;5591;42.626;23.380;2024-02-26T10:32:47;93675.66;;;20.31;55.27
11077;BME280;5591;42.626;23.380;2024-02-26T10:35:14;93671.25;;;19.59;55.77
11077;BME280;5591;42.626;23.380;2024-02-26T10:37:42;93682.00;;;19.37;56.43
11077;BME280;5591;42.626;23.380;2024-02-26T10:40:11;93672.16;;;20.26;55.24
11077;BME280;5591;42.626;23.380;2024-02-26T10:42:38;93668.22;;;20.38;54.22
11077;BME280;5591;42.626;23.380;2024-02-26T10:45:06;93673.66;;;20.07;55.10
11077;BME280;5591;42.626;23.380;2024-02-26T10:47:34;93658.28;;;19.72;55.72
11077;BME280;5591;42.626;23.380;2024-02-26T10:50:02;93666.41;;;19.97;55.11
11077;BME280;5591;42.626;23.380;2024-02-26T10:52:31;93622.06;;;20.27;54.30
11077;BME280;5591;42.626;23.380;2024-02-26T10:55:00;93662.44;;;20.56;53.64
11077;BME280;5591;42.626;23.380;2024-02-26T10:57:31;93676.75;;;20.35;54.26
11077;BME280;5591;42.626;23.380;2024-02-26T11:00:00;93659.94;;;20.30;53.46
11077;BME280;5591;42.626;23.380;2024-02-26T11:02:30;93660.31;;;20.63;53.08
11077;BME280;5591;42.626;23.380;2024-02-26T11:04:58;93653.22;;;21.08;51.97
11077;BME280;5591;42.626;23.380;2024-02-26T11:07:26;93650.28;;;21.25;51.59
11077;BME280;5591;42.626;23.380;2024-02-26T11:09:54;93643.22;;;20.59;52.30
11077;BME280;5591;42.626;23.380;2024-02-26T11:12:22;93650.72;;;20.67;52.47
11077;BME280;5591;42.626;23.380;2024-02-26T11:14:52;93656.25;;;20.40;52.55
11077;BME280;5591;42.626;23.380;2024-02-26T11:17:21;93649.75;;;20.17;52.74
11077;BME280;5591;42.626;23.380;2024-02-26T11:19:50;93640.75;;;20.33;52.75
11077;BME280;5591;42.626;23.380;2024-02-26T11:22:19;93647.19;;;20.46;52.59
11077;BME280;5591;42.626;23.380;2024-02-26T11:24:47;93647.97;;;20.42;52.47
11077;BME280;5591;42.626;23.380;2024-02-26T11:27:16;93653.22;;;20.22;52.49
11077;BME280;5591;42.626;23.380;2024-02-26T11:29:47;93645.81;;;19.78;53.26
11077;BME280;5591;42.626;23.380;2024-02-26T11:32:17;93646.16;;;19.96;53.05
11077;BME280;5591;42.626;23.380;2024-02-26T11:34:44;93646.09;;;19.81;53.54
11077;BME280;5591;42.626;23.380;2024-02-26T11:37:11;93644.78;;;20.35;52.66
11077;BME280;5591;42.626;23.380;2024-02-26T11:39:40;93616.19;;;20.21;52.50
11077;BME280;5591;42.626;23.380;2024-02-26T11:42:07;93659.59;;;20.87;51.82
11077;BME280;5591;42.626;23.380;2024-02-26T11:44:35;93570.38;;;20.29;50.83
11077;BME280;5591;42.626;23.380;2024-02-26T11:47:10;93634.09;;;20.35;51.23
11077;BME280;5591;42.626;23.380;2024-02-26T11:49:38;93629.31;;;20.37;51.45
11077;BME280;5591;42.626;23.380;2024-02-26T11:52:06;93636.41;;;20.17;51.55
11077;BME280;5591;42.626;23.380;2024-02-26T11:54:44;93628.53;;;20.41;51.54
11077;BME280;5591;42.626;23.380;2024-02-26T11:57:21;93636.56;;;20.66;50.62
11077;BME280;5591;42.626;23.380;2024-02-26T11:59:48;93631.44;;;20.35;51.04
11077;BME280;5591;42.626;23.380;2024-02-26T12:02:37;93623.59;;;20.90;50.16
11077;BME280;5591;42.626;23.380;2024-02-26T12:05:07;93628.56;;;20.66;50.58
11077;BME280;5591;42.626;23.380;2024-02-26T12:07:34;93638.78;;;21.34;49.44
11077;BME280;5591;42.626;23.380;2024-02-26T12:10:22;93630.81;;;21.24;49.17
11077;BME280;5591;42.626;23.380;2024-02-26T12:12:53;93638.00;;;21.69;48.37
11077;BME280;5591;42.626;23.380;2024-02-26T12:15:22;93633.06;;;22.11;47.19
11077;BME280;5591;42.626;23.380;2024-02-26T12:17:49;93632.13;;;21.67;47.04
11077;BME280;5591;42.626;23.380;2024-02-26T12:20:19;93612.09;;;21.39;47.42
11077;BME280;5591;42.626;23.380;2024-02-26T12:22:46;93631.13;;;22.31;46.51
11077;BME280;5591;42.626;23.380;2024-02-26T12:25:14;93632.09;;;21.87;46.63
11077;BME280;5591;42.626;23.380;2024-02-26T12:27:41;93637.25;;;22.37;45.95
11077;BME280;5591;42.626;23.380;2024-02-26T12:30:09;93635.16;;;22.24;46.04
11077;BME280;5591;42.626;23.380;2024-02-26T12:32:36;93635.09;;;22.44;45.27
11077;BME280;5591;42.626;23.380;2024-02-26T12:35:04;93628.56;;;23.08;44.48
11077;BME280;5591;42.626;23.380;2024-02-26T12:37:33;93628.53;;;23.18;44.06
11077;BME280;5591;42.626;23.380;2024-02-26T12:40:03;93627.41;;;23.86;42.40
11077;BME280;5591;42.626;23.380;2024-02-26T12:42:30;93633.19;;;24.45;41.68
11077;BME280;5591;42.626;23.380;2024-02-26T12:44:57;93634.72;;;24.93;40.56
11077;BME280;5591;42.626;23.380;2024-02-26T12:47:24;93622.19;;;23.99;41.31
11077;BME280;5591;42.626;23.380;2024-02-26T12:49:51;93632.78;;;23.52;42.15
11077;BME280;5591;42.626;23.380;2024-02-26T12:52:18;93630.66;;;23.49;42.47
11077;BME280;5591;42.626;23.380;2024-02-26T12:54:47;93596.81;;;23.63;41.61
11077;BME280;5591;42.626;23.380;2024-02-26T12:57:15;93630.63;;;22.83;42.46